createdAt,value
2022-10-09T00:01:19.481Z,10.44
2022-10-09T00:03:47.937Z,10.40
2022-10-09T00:06:17.220Z,10.32
2022-10-09T00:08:44.331Z,10.25
2022-10-09T00:11:16.517Z,10.27
2022-10-09T00:13:43.423Z,10.24
2022-10-09T00:16:12.807Z,10.28
2022-10-09T00:18:39.858Z,10.33
2022-10-09T00:21:14.191Z,10.33
2022-10-09T00:23:41.031Z,10.32
2022-10-09T00:26:08.545Z,10.31
2022-10-09T00:28:38.484Z,10.32
2022-10-09T00:31:09.585Z,10.33
2022-10-09T00:33:37.187Z,10.32
2022-10-09T00:36:10.384Z,10.32
2022-10-09T00:38:36.904Z,10.34
2022-10-09T00:41:03.609Z,10.30
2022-10-09T00:43:52.287Z,10.26
2022-10-09T00:46:25.664Z,10.23
2022-10-09T00:49:02.991Z,10.15
2022-10-09T00:51:30.381Z,10.09
2022-10-09T00:53:57.219Z,10.09
2022-10-09T00:56:24.961Z,10.06
2022-10-09T00:58:53.919Z,10.04
2022-10-09T01:01:21.091Z,10.04
2022-10-09T01:03:47.822Z,10.10
2022-10-09T01:06:23.013Z,10.08
2022-10-09T01:09:08.713Z,10.11
2022-10-09T01:11:57.317Z,10.06
2022-10-09T01:14:29.662Z,10.03
2022-10-09T01:17:08.371Z,10.01
2022-10-09T01:19:44.981Z,9.93
2022-10-09T01:22:29.908Z,9.89
2022-10-09T01:25:11.670Z,9.94
2022-10-09T01:27:38.809Z,9.91
2022-10-09T01:30:08.568Z,9.85
2022-10-09T01:32:38.230Z,9.85
2022-10-09T01:35:06.382Z,9.81
2022-10-09T01:37:34.231Z,9.79
2022-10-09T01:40:01.143Z,9.83
2022-10-09T01:42:29.030Z,9.83
2022-10-09T01:44:55.721Z,9.81
2022-10-09T01:47:22.826Z,9.77
2022-10-09T01:50:01.899Z,9.78
2022-10-09T01:52:31.977Z,9.75
2022-10-09T01:55:01.440Z,9.76
2022-10-09T01:57:46.674Z,9.72
2022-10-09T02:00:14.149Z,9.67
2022-10-09T02:02:42.251Z,9.62
2022-10-09T02:05:15.693Z,9.64
2022-10-09T02:07:42.425Z,9.62
2022-10-09T02:10:09.975Z,9.62
2022-10-09T02:12:44.380Z,9.59
2022-10-09T02:15:11.549Z,9.53
2022-10-09T02:17:44.219Z,9.52
2022-10-09T02:20:15.698Z,9.53
2022-10-09T02:22:42.435Z,9.56
2022-10-09T02:25:09.595Z,9.59
2022-10-09T02:27:36.341Z,9.58
2022-10-09T02:30:04.779Z,9.63
2022-10-09T02:32:31.396Z,9.63
2022-10-09T02:34:58.036Z,9.64
2022-10-09T02:37:24.678Z,9.61
2022-10-09T02:39:51.426Z,9.63
2022-10-09T02:42:18.238Z,9.61
2022-10-09T02:44:44.944Z,9.60
2022-10-09T02:47:11.649Z,9.62
2022-10-09T02:49:38.296Z,9.63
2022-10-09T02:52:05.624Z,9.60
2022-10-09T02:54:32.354Z,9.59
2022-10-09T02:56:59.021Z,9.60
2022-10-09T02:59:26.261Z,9.67
2022-10-09T03:01:53.018Z,9.64
2022-10-09T03:04:19.790Z,9.64
2022-10-09T03:06:46.450Z,9.61
2022-10-09T03:09:13.076Z,9.57
2022-10-09T03:11:39.763Z,9.51
2022-10-09T03:14:06.496Z,9.49
2022-10-09T03:16:33.192Z,9.47
2022-10-09T03:19:00.215Z,9.48
2022-10-09T03:21:28.297Z,9.45
2022-10-09T03:23:55.532Z,9.45
2022-10-09T03:26:24.779Z,9.46
2022-10-09T03:28:52.647Z,9.42
2022-10-09T03:31:50.567Z,9.45
2022-10-09T03:34:07.772Z,9.45
2022-10-09T03:36:34.515Z,9.44
2022-10-09T03:39:01.161Z,9.43
2022-10-09T03:41:27.844Z,9.41
2022-10-09T03:43:54.823Z,9.41
2022-10-09T03:46:22.000Z,9.35
2022-10-09T03:48:48.733Z,9.33
2022-10-09T03:51:15.400Z,9.29
2022-10-09T03:53:42.034Z,9.32
2022-10-09T03:56:08.775Z,9.33
2022-10-09T03:58:35.376Z,9.32
2022-10-09T04:01:02.037Z,9.26
2022-10-09T04:03:29.044Z,9.20
2022-10-09T04:05:55.686Z,9.17
2022-10-09T04:08:22.497Z,9.17
2022-10-09T04:10:49.253Z,9.13
2022-10-09T04:13:15.952Z,9.16
2022-10-09T04:15:50.129Z,9.22
2022-10-09T04:18:16.979Z,9.22
2022-10-09T04:20:54.045Z,9.22
2022-10-09T04:23:21.706Z,9.17
2022-10-09T04:25:48.860Z,9.13
2022-10-09T04:28:15.528Z,9.11
2022-10-09T04:30:42.205Z,9.11
2022-10-09T04:33:12.771Z,9.04
2022-10-09T04:35:46.779Z,9.04
2022-10-09T04:38:13.347Z,9.00
2022-10-09T04:40:40.028Z,8.95
2022-10-09T04:43:06.871Z,8.96
2022-10-09T04:45:33.809Z,8.91
2022-10-09T04:48:00.534Z,8.90
2022-10-09T04:50:27.225Z,8.88
2022-10-09T04:52:59.642Z,8.90
2022-10-09T04:55:26.388Z,8.90
2022-10-09T04:57:53.021Z,8.91
2022-10-09T05:00:19.764Z,8.89
2022-10-09T05:02:46.818Z,8.90
2022-10-09T05:05:13.995Z,8.88
2022-10-09T05:07:41.031Z,8.88
2022-10-09T05:10:08.558Z,8.79
2022-10-09T05:12:35.408Z,8.72
2022-10-09T05:15:02.133Z,8.71
2022-10-09T05:17:28.916Z,8.66
2022-10-09T05:19:55.605Z,8.63
2022-10-09T05:22:22.563Z,8.62
2022-10-09T05:24:49.327Z,8.60
2022-10-09T05:27:16.005Z,8.52
2022-10-09T05:29:43.288Z,8.53
2022-10-09T05:32:10.062Z,8.49
2022-10-09T05:34:36.739Z,8.46
2022-10-09T05:37:03.485Z,8.41
2022-10-09T05:39:30.208Z,8.38
2022-10-09T05:41:56.904Z,8.36
2022-10-09T05:44:24.163Z,8.33
2022-10-09T05:46:50.827Z,8.35
2022-10-09T05:49:17.567Z,8.35
2022-10-09T05:51:44.291Z,8.33
2022-10-09T05:54:15.678Z,8.28
2022-10-09T05:56:43.638Z,8.33
2022-10-09T05:59:14.881Z,8.33
2022-10-09T06:01:43.761Z,8.36
2022-10-09T06:04:16.176Z,8.34
2022-10-09T06:06:43.718Z,8.30
2022-10-09T06:09:12.331Z,8.32
2022-10-09T06:11:40.552Z,8.26
2022-10-09T06:14:09.659Z,8.31
2022-10-09T06:16:38.456Z,8.36
2022-10-09T06:19:07.599Z,8.39
2022-10-09T06:21:40.625Z,8.47
2022-10-09T06:24:07.428Z,8.54
2022-10-09T06:26:34.775Z,8.70
2022-10-09T06:29:02.361Z,8.77
2022-10-09T06:31:31.494Z,8.89
2022-10-09T06:34:03.250Z,8.97
2022-10-09T06:36:32.160Z,9.04
2022-10-09T06:38:59.987Z,9.10
2022-10-09T06:41:28.289Z,9.15
2022-10-09T06:44:16.559Z,9.27
2022-10-09T06:46:44.880Z,9.30
2022-10-09T06:49:17.673Z,9.38
2022-10-09T06:51:48.112Z,9.41
2022-10-09T06:54:16.756Z,9.37
2022-10-09T06:56:47.260Z,9.44
2022-10-09T06:59:14.323Z,9.47
2022-10-09T07:01:41.033Z,9.54
2022-10-09T07:04:12.819Z,9.64
2022-10-09T07:06:44.787Z,9.79
2022-10-09T07:09:13.457Z,9.84
2022-10-09T07:11:43.361Z,9.96
2022-10-09T07:14:11.548Z,10.06
2022-10-09T07:16:41.477Z,10.16
2022-10-09T07:19:11.192Z,10.27
2022-10-09T07:21:40.048Z,10.40
2022-10-09T07:24:07.477Z,10.51
2022-10-09T07:26:35.982Z,10.58
2022-10-09T07:29:02.736Z,10.66
2022-10-09T07:31:29.386Z,10.73
2022-10-09T07:33:57.159Z,10.85
2022-10-09T07:36:23.989Z,10.89
2022-10-09T07:38:54.570Z,10.99
2022-10-09T07:41:22.498Z,11.08
2022-10-09T07:43:49.539Z,11.09
2022-10-09T07:46:18.768Z,11.12
2022-10-09T07:48:46.228Z,11.16
2022-10-09T07:51:17.402Z,11.25
2022-10-09T07:53:44.933Z,11.19
2022-10-09T07:56:15.948Z,11.21
2022-10-09T07:58:43.325Z,11.23
2022-10-09T08:01:10.525Z,11.35
2022-10-09T08:03:37.355Z,11.46
2022-10-09T08:06:04.704Z,11.43
2022-10-09T08:08:31.316Z,11.60
2022-10-09T08:10:57.965Z,11.80
2022-10-09T08:13:24.711Z,11.87
2022-10-09T08:15:51.625Z,12.07
2022-10-09T08:18:18.265Z,12.22
2022-10-09T08:20:45.224Z,12.19
2022-10-09T08:23:11.872Z,12.27
2022-10-09T08:25:39.159Z,12.28
2022-10-09T08:28:05.817Z,12.35
2022-10-09T08:30:32.620Z,12.49
2022-10-09T08:32:59.253Z,12.50
2022-10-09T08:35:26.832Z,12.49
2022-10-09T08:37:53.560Z,12.55
2022-10-09T08:40:29.614Z,12.52
2022-10-09T08:43:07.228Z,12.56
2022-10-09T08:45:35.198Z,12.65
2022-10-09T08:48:06.556Z,12.64
2022-10-09T08:50:36.162Z,12.69
2022-10-09T08:53:14.033Z,12.80
2022-10-09T08:55:58.714Z,12.98
2022-10-09T08:58:29.758Z,13.01
2022-10-09T09:01:01.996Z,13.16
2022-10-09T09:03:57.023Z,13.30
2022-10-09T09:06:57.057Z,13.46
2022-10-09T09:09:35.711Z,13.62
2022-10-09T09:12:16.186Z,13.67
2022-10-09T09:15:05.563Z,13.73
2022-10-09T09:18:01.315Z,13.96
2022-10-09T09:20:37.154Z,14.11
2022-10-09T09:23:09.369Z,14.07
2022-10-09T09:25:37.968Z,14.27
2022-10-09T09:28:18.245Z,14.50
2022-10-09T09:30:49.233Z,14.51
2022-10-09T09:33:23.201Z,14.48
2022-10-09T09:35:55.899Z,14.59
2022-10-09T09:38:23.083Z,14.70
2022-10-09T09:40:51.210Z,14.76
2022-10-09T09:43:21.314Z,14.95
2022-10-09T09:45:49.228Z,14.88
2022-10-09T09:48:37.674Z,15.06
2022-10-09T09:51:26.703Z,15.07
2022-10-09T09:54:17.029Z,15.17
2022-10-09T09:59:40.138Z,15.07
2022-10-09T10:02:06.807Z,15.12
2022-10-09T10:04:33.512Z,15.27
2022-10-09T10:07:00.239Z,15.31
2022-10-09T10:09:27.243Z,15.36
2022-10-09T10:11:59.453Z,15.50
2022-10-09T10:14:27.093Z,15.45
2022-10-09T10:16:55.909Z,15.41
2022-10-09T10:19:25.232Z,15.44
2022-10-09T10:22:03.464Z,15.55
2022-10-09T10:24:45.061Z,15.61
2022-10-09T10:27:21.890Z,15.74
2022-10-09T10:29:49.788Z,15.78
2022-10-09T10:32:39.209Z,15.86
2022-10-09T10:35:11.009Z,15.97
2022-10-09T10:37:49.886Z,15.93
2022-10-09T10:40:31.795Z,15.95
2022-10-09T10:43:10.658Z,15.98
2022-10-09T10:45:43.160Z,16.06
2022-10-09T10:48:10.653Z,16.11
2022-10-09T10:50:53.738Z,16.18
2022-10-09T10:53:23.815Z,16.33
2022-10-09T10:55:55.846Z,16.28
2022-10-09T10:58:40.871Z,16.33
2022-10-09T11:01:32.680Z,16.33
2022-10-09T11:04:23.686Z,16.26
2022-10-09T11:07:14.659Z,16.30
2022-10-09T11:09:58.656Z,16.31
2022-10-09T11:12:48.126Z,16.31
2022-10-09T11:15:38.618Z,16.42
2022-10-09T11:18:21.856Z,16.46
2022-10-09T11:20:54.486Z,16.48
2022-10-09T11:23:39.657Z,16.52
2022-10-09T11:26:31.119Z,16.55
2022-10-09T11:29:18.065Z,16.53
2022-10-09T11:31:55.555Z,16.53
2022-10-09T11:34:30.628Z,16.59
2022-10-09T11:36:59.029Z,16.56
2022-10-09T11:39:27.314Z,16.65
2022-10-09T11:41:55.009Z,16.59
2022-10-09T11:44:52.029Z,16.43
2022-10-09T11:47:25.231Z,16.38
2022-10-09T11:50:31.064Z,16.52
2022-10-09T11:52:58.864Z,16.61
2022-10-09T11:55:27.975Z,16.62
2022-10-09T11:57:55.119Z,16.59
2022-10-09T12:00:34.263Z,16.61
2022-10-09T12:03:03.720Z,16.62
2022-10-09T12:05:45.548Z,16.62
2022-10-09T12:08:32.448Z,16.65
2022-10-09T12:11:15.288Z,16.67
2022-10-09T12:13:45.078Z,16.47
2022-10-09T12:16:49.913Z,16.67
2022-10-09T12:19:19.641Z,16.77
2022-10-09T12:22:08.165Z,16.77
2022-10-09T12:24:40.730Z,16.89
2022-10-09T12:27:07.302Z,16.96
2022-10-09T12:29:40.927Z,16.90
2022-10-09T12:32:18.785Z,16.79
2022-10-09T12:34:50.474Z,16.71
2022-10-09T12:37:22.484Z,16.81
2022-10-09T12:39:49.813Z,16.78
2022-10-09T12:42:22.064Z,16.94
2022-10-09T12:44:50.285Z,17.09
2022-10-09T12:47:28.356Z,17.03
2022-10-09T12:50:16.105Z,17.09
2022-10-09T12:52:56.756Z,17.19
2022-10-09T12:55:42.657Z,17.18
2022-10-09T12:58:16.909Z,17.06
2022-10-09T13:00:43.924Z,17.11
2022-10-09T13:03:23.566Z,17.10
2022-10-09T13:05:50.604Z,17.09
2022-10-09T13:08:24.601Z,17.17
2022-10-09T13:10:51.971Z,17.17
2022-10-09T13:13:26.233Z,17.30
2022-10-09T13:16:01.450Z,17.28
2022-10-09T13:18:28.212Z,17.36
2022-10-09T13:21:04.859Z,17.42
2022-10-09T13:23:33.691Z,17.40
2022-10-09T13:26:03.568Z,17.47
2022-10-09T13:28:30.718Z,17.48
2022-10-09T13:31:06.324Z,17.47
2022-10-09T13:33:32.971Z,17.38
2022-10-09T13:35:59.595Z,17.44
2022-10-09T13:38:26.278Z,17.44
2022-10-09T13:40:52.999Z,17.46
2022-10-09T13:43:26.125Z,17.31
2022-10-09T13:45:53.715Z,17.33
2022-10-09T13:48:20.332Z,17.14
2022-10-09T13:50:47.024Z,17.10
2022-10-09T13:53:13.953Z,17.04
2022-10-09T13:55:40.667Z,17.08
2022-10-09T13:58:07.361Z,17.04
2022-10-09T14:00:34.262Z,17.10
2022-10-09T14:03:00.906Z,17.13
2022-10-09T14:05:27.620Z,17.29
2022-10-09T14:07:54.744Z,17.29
2022-10-09T14:10:23.893Z,17.19
2022-10-09T14:12:51.788Z,17.16
2022-10-09T14:15:18.826Z,17.01
2022-10-09T14:17:45.581Z,16.89
2022-10-09T14:20:12.651Z,16.81
2022-10-09T14:22:39.313Z,16.77
2022-10-09T14:25:06.399Z,16.76
2022-10-09T14:30:19.589Z,16.82
2022-10-09T14:32:46.427Z,16.86
2022-10-09T14:35:16.966Z,16.82
2022-10-09T14:37:45.915Z,16.84
2022-10-09T14:40:12.786Z,16.94
2022-10-09T14:42:39.979Z,16.89
2022-10-09T14:45:07.696Z,16.93
2022-10-09T14:47:34.346Z,16.87
2022-10-09T14:50:01.200Z,16.83
2022-10-09T14:52:27.932Z,16.82
2022-10-09T14:54:54.575Z,16.76
2022-10-09T14:57:22.014Z,16.66
2022-10-09T14:59:48.706Z,16.63
2022-10-09T15:02:16.367Z,16.61
2022-10-09T15:04:43.065Z,16.56
2022-10-09T15:07:09.795Z,16.58
2022-10-09T15:09:36.436Z,16.42
2022-10-09T15:12:03.121Z,16.36
2022-10-09T15:14:29.732Z,16.35
2022-10-09T15:16:56.324Z,16.20
2022-10-09T15:19:23.024Z,16.31
2022-10-09T15:21:49.656Z,16.32
2022-10-09T15:24:16.266Z,16.26
2022-10-09T15:26:42.875Z,16.07
2022-10-09T15:29:09.567Z,16.02
2022-10-09T15:31:38.745Z,15.99
2022-10-09T15:34:06.439Z,15.98
2022-10-09T15:36:38.095Z,16.06
2022-10-09T15:39:07.287Z,15.92
2022-10-09T15:41:36.905Z,15.95
2022-10-09T15:44:06.190Z,15.93
2022-10-09T15:46:32.953Z,15.97
2022-10-09T15:48:59.747Z,15.81
2022-10-09T15:51:26.685Z,15.86
2022-10-09T15:53:53.369Z,15.85
2022-10-09T15:56:22.860Z,15.87
2022-10-09T15:58:50.709Z,15.77
2022-10-09T16:01:18.053Z,15.66
2022-10-09T16:03:45.130Z,15.63
2022-10-09T16:06:15.496Z,15.58
2022-10-09T16:08:42.387Z,15.56
2022-10-09T16:11:11.768Z,15.58
2022-10-09T16:13:40.748Z,15.50
2022-10-09T16:16:09.643Z,15.49
2022-10-09T16:18:36.505Z,15.31
2022-10-09T16:21:07.650Z,15.37
2022-10-09T16:23:34.833Z,15.24
2022-10-09T16:26:04.948Z,15.28
2022-10-09T16:28:32.720Z,15.27
2022-10-09T16:31:02.520Z,15.23
2022-10-09T16:33:29.180Z,15.25
2022-10-09T16:36:06.738Z,15.11
2022-10-09T16:38:33.458Z,15.07
2022-10-09T16:41:02.469Z,15.08
2022-10-09T16:43:29.443Z,14.98
2022-10-09T16:45:56.061Z,14.95
2022-10-09T16:48:22.798Z,14.91
2022-10-09T16:50:49.751Z,14.90
2022-10-09T16:53:16.568Z,14.91
2022-10-09T16:55:43.244Z,14.85
2022-10-09T16:58:09.889Z,14.80
2022-10-09T17:00:36.656Z,14.76
2022-10-09T17:03:03.929Z,14.68
2022-10-09T17:05:30.609Z,14.61
2022-10-09T17:07:57.381Z,14.57
2022-10-09T17:10:26.898Z,14.56
2022-10-09T17:12:53.513Z,14.54
2022-10-09T17:15:20.157Z,14.47
2022-10-09T17:17:47.184Z,14.41
2022-10-09T17:20:13.986Z,14.41
2022-10-09T17:22:40.606Z,14.38
2022-10-09T17:25:07.570Z,14.35
2022-10-09T17:27:34.174Z,14.31
2022-10-09T17:30:00.803Z,14.17
2022-10-09T17:32:27.469Z,14.26
2022-10-09T17:34:54.129Z,14.23
2022-10-09T17:37:20.841Z,14.24
2022-10-09T17:39:51.875Z,14.20
2022-10-09T17:42:18.938Z,14.17
2022-10-09T17:44:45.583Z,14.16
2022-10-09T17:47:12.259Z,14.13
2022-10-09T17:49:38.842Z,14.10
2022-10-09T17:52:05.511Z,14.05
2022-10-09T17:54:32.186Z,14.05
2022-10-09T17:57:00.356Z,14.05
2022-10-09T17:59:27.386Z,14.06
2022-10-09T18:01:53.945Z,14.00
2022-10-09T18:04:20.632Z,14.00
2022-10-09T18:06:47.255Z,13.99
2022-10-09T18:09:13.995Z,13.95
2022-10-09T18:11:40.719Z,13.90
2022-10-09T18:14:07.585Z,13.89
2022-10-09T18:16:37.847Z,13.86
2022-10-09T18:19:12.285Z,13.83
2022-10-09T18:21:43.687Z,13.82
2022-10-09T18:24:10.827Z,13.82
2022-10-09T18:26:37.551Z,13.78
2022-10-09T18:29:05.467Z,13.75
2022-10-09T18:31:32.327Z,13.73
2022-10-09T18:33:59.566Z,13.68
2022-10-09T18:36:31.369Z,13.63
2022-10-09T18:39:04.494Z,13.58
2022-10-09T18:41:31.310Z,13.55
2022-10-09T18:44:00.084Z,13.56
2022-10-09T18:46:27.621Z,13.53
2022-10-09T18:48:54.912Z,13.52
2022-10-09T18:51:23.856Z,13.52
2022-10-09T18:53:53.095Z,13.46
2022-10-09T18:56:21.107Z,13.42
2022-10-09T18:58:49.627Z,13.40
2022-10-09T19:01:16.311Z,13.38
2022-10-09T19:03:46.049Z,13.38
2022-10-09T19:06:15.916Z,13.36
2022-10-09T19:08:43.688Z,13.34
2022-10-09T19:11:10.443Z,13.32
2022-10-09T19:13:37.132Z,13.30
2022-10-09T19:16:05.705Z,13.28
2022-10-09T19:18:34.620Z,13.27
2022-10-09T19:21:01.863Z,13.23
2022-10-09T19:23:28.687Z,13.19
2022-10-09T19:25:57.111Z,13.22
2022-10-09T19:28:25.778Z,13.16
2022-10-09T19:30:52.762Z,13.14
2022-10-09T19:33:19.543Z,13.10
2022-10-09T19:35:50.440Z,13.08
2022-10-09T19:38:17.778Z,13.09
2022-10-09T19:40:45.296Z,13.08
2022-10-09T19:43:12.972Z,13.04
2022-10-09T19:45:39.724Z,13.01
2022-10-09T19:48:06.855Z,12.99
2022-10-09T19:50:33.685Z,12.98
2022-10-09T19:53:03.299Z,12.92
2022-10-09T19:55:33.342Z,12.86
2022-10-09T19:58:00.627Z,12.81
2022-10-09T20:00:28.340Z,12.70
2022-10-09T20:02:55.055Z,12.66
2022-10-09T20:05:23.041Z,12.66
2022-10-09T20:07:50.220Z,12.65
2022-10-09T20:10:17.070Z,12.61
2022-10-09T20:12:43.764Z,12.59
2022-10-09T20:15:10.668Z,12.58
2022-10-09T20:17:37.400Z,12.55
2022-10-09T20:20:05.311Z,12.48
2022-10-09T20:22:32.143Z,12.48
2022-10-09T20:24:58.882Z,12.47
2022-10-09T20:27:25.574Z,12.45
2022-10-09T20:29:53.053Z,12.37
2022-10-09T20:32:19.807Z,12.37
2022-10-09T20:34:46.479Z,12.36
2022-10-09T20:37:13.167Z,12.33
2022-10-09T20:39:39.840Z,12.30
2022-10-09T20:42:06.628Z,12.34
2022-10-09T20:44:33.367Z,12.39
2022-10-09T20:47:00.017Z,12.53
2022-10-09T20:49:26.943Z,12.62
2022-10-09T20:51:53.772Z,12.71
2022-10-09T20:54:21.826Z,12.78
2022-10-09T20:56:48.824Z,12.91
2022-10-09T20:59:16.484Z,12.98
2022-10-09T21:01:43.101Z,13.07
2022-10-09T21:04:11.228Z,13.14
2022-10-09T21:06:38.259Z,13.21
2022-10-09T21:09:05.174Z,13.22
2022-10-09T21:11:34.511Z,13.22
2022-10-09T21:14:02.279Z,13.22
2022-10-09T21:16:29.077Z,13.30
2022-10-09T21:18:58.150Z,13.32
2022-10-09T21:21:25.525Z,13.34
2022-10-09T21:23:53.627Z,13.41
2022-10-09T21:26:21.391Z,13.44
2022-10-09T21:28:48.403Z,13.45
2022-10-09T21:31:20.360Z,13.45
2022-10-09T21:33:47.617Z,13.47
2022-10-09T21:36:56.251Z,13.47
2022-10-09T21:39:28.903Z,13.46
2022-10-09T21:41:55.545Z,13.44
2022-10-09T21:44:22.240Z,13.43
2022-10-09T21:46:48.921Z,13.34
2022-10-09T21:49:21.403Z,13.37
2022-10-09T21:51:48.172Z,13.37
2022-10-09T21:54:15.472Z,13.31
2022-10-09T21:56:42.153Z,13.25
2022-10-09T21:59:09.037Z,13.18
2022-10-09T22:01:35.994Z,13.16
2022-10-09T22:04:02.747Z,13.14
2022-10-09T22:06:29.411Z,13.12
2022-10-09T22:08:56.082Z,13.13
2022-10-09T22:11:22.744Z,13.18
2022-10-09T22:13:49.995Z,13.22
2022-10-09T22:16:16.713Z,13.27
2022-10-09T22:18:43.534Z,13.32
2022-10-09T22:21:13.066Z,13.31
2022-10-09T22:23:39.810Z,13.32
2022-10-09T22:26:10.153Z,13.34
2022-10-09T22:28:36.912Z,13.32
2022-10-09T22:31:07.803Z,13.32
2022-10-09T22:33:35.843Z,13.30
2022-10-09T22:36:13.759Z,13.29
2022-10-09T22:38:41.160Z,13.22
2022-10-09T22:41:09.098Z,13.15
2022-10-09T22:43:36.293Z,13.12
2022-10-09T22:46:11.014Z,13.07
2022-10-09T22:48:38.199Z,12.96
2022-10-09T22:51:06.443Z,12.92
2022-10-09T22:53:33.984Z,12.86
2022-10-09T22:56:00.785Z,12.85
2022-10-09T22:58:27.490Z,12.79
2022-10-09T23:00:54.129Z,12.79
2022-10-09T23:03:20.908Z,12.73
2022-10-09T23:05:47.576Z,12.67
2022-10-09T23:08:14.256Z,12.67
2022-10-09T23:10:41.087Z,12.65
2022-10-09T23:13:07.890Z,12.61
2022-10-09T23:15:36.210Z,12.57
2022-10-09T23:18:04.556Z,12.57
2022-10-09T23:20:32.091Z,12.55
2022-10-09T23:22:58.815Z,12.56
2022-10-09T23:25:25.575Z,12.58
2022-10-09T23:27:52.237Z,12.58
2022-10-09T23:30:18.852Z,12.57
2022-10-09T23:32:45.546Z,12.55
2022-10-09T23:35:12.258Z,12.54
2022-10-09T23:37:39.072Z,12.48
2022-10-09T23:40:06.119Z,12.47
2022-10-09T23:42:32.827Z,12.43
2022-10-09T23:44:59.516Z,12.40
2022-10-09T23:47:26.174Z,12.42
2022-10-09T23:49:52.904Z,12.44
2022-10-09T23:52:19.649Z,12.42
2022-10-09T23:54:46.344Z,12.41
2022-10-09T23:57:13.019Z,12.38
2022-10-09T23:59:39.626Z,12.39
